createdAt,value
2016-08-28T00:15:22.796Z,19.44
2016-08-28T00:16:24.049Z,19.42
2016-08-28T00:17:40.674Z,19.45
2016-08-28T00:18:22.485Z,19.39
2016-08-28T00:19:12.029Z,19.41
2016-08-28T00:20:12.964Z,19.38
2016-08-28T00:21:13.809Z,19.38
2016-08-28T00:22:11.661Z,19.28
2016-08-28T00:23:18.755Z,19.31
2016-08-28T00:24:29.338Z,19.40
2016-08-28T00:25:18.507Z,19.41
2016-08-28T00:26:17.297Z,19.40
2016-08-28T00:27:26.085Z,19.40
2016-08-28T00:28:22.364Z,19.30
2016-08-28T00:29:17.748Z,19.32
2016-08-28T00:30:12.165Z,19.36
2016-08-28T00:31:22.327Z,19.36
2016-08-28T00:32:12.193Z,19.31
2016-08-28T00:33:12.770Z,19.29
2016-08-28T00:34:17.201Z,19.27
2016-08-28T00:35:18.279Z,19.26
2016-08-28T00:36:23.084Z,19.27
2016-08-28T00:37:26.266Z,19.29
2016-08-28T00:38:12.600Z,19.34
2016-08-28T00:39:21.233Z,19.38
2016-08-28T00:40:18.665Z,19.43
2016-08-28T00:41:11.678Z,19.44
2016-08-28T00:42:27.825Z,19.36
2016-08-28T00:43:12.312Z,19.35
2016-08-28T00:44:19.128Z,19.36
2016-08-28T00:45:17.128Z,19.38
2016-08-28T00:46:16.737Z,19.24
2016-08-28T00:47:12.303Z,19.23
2016-08-28T00:49:13.664Z,19.21
2016-08-28T00:50:14.239Z,19.23
2016-08-28T00:51:12.323Z,19.25
2016-08-28T00:52:14.215Z,19.23
2016-08-28T01:14:21.544Z,18.95
2016-08-28T01:15:15.490Z,18.96
2016-08-28T01:16:17.992Z,18.95
2016-08-28T01:18:22.989Z,18.84
2016-08-28T01:19:15.629Z,18.86
2016-08-28T01:21:20.290Z,18.86
2016-08-28T01:22:19.866Z,18.82
2016-08-28T01:24:20.866Z,18.82
2016-08-28T01:25:13.037Z,18.86
2016-08-28T01:26:17.733Z,18.88
2016-08-28T01:27:13.465Z,18.93
2016-08-28T01:35:22.431Z,18.92
2016-08-28T01:37:23.220Z,18.83
2016-08-28T01:38:14.756Z,18.82
2016-08-28T01:46:21.678Z,18.82
2016-08-28T01:56:22.256Z,18.71
2016-08-28T01:57:13.585Z,18.74
2016-08-28T01:58:17.122Z,18.68
2016-08-28T02:14:19.430Z,18.59
2016-08-28T02:15:12.582Z,18.60
2016-08-28T02:18:14.041Z,18.74
2016-08-28T02:22:22.184Z,18.59
2016-08-28T02:24:23.617Z,18.65
2016-08-28T02:25:18.002Z,18.62
2016-08-28T02:26:16.603Z,18.59
2016-08-28T02:27:21.472Z,18.59
2016-08-28T02:28:34.016Z,18.59
2016-08-28T02:29:42.198Z,18.58
2016-08-28T02:30:23.723Z,18.61
2016-08-28T02:32:23.431Z,18.65
2016-08-28T02:42:25.540Z,18.59
2016-08-28T02:46:17.339Z,18.61
2016-08-28T02:52:32.605Z,18.56
2016-08-28T02:53:13.398Z,18.55
2016-08-28T02:54:17.537Z,18.62
2016-08-28T02:56:13.471Z,18.56
2016-08-28T02:57:13.257Z,18.60
2016-08-28T03:09:12.810Z,18.82
2016-08-28T03:13:20.107Z,18.87
2016-08-28T03:17:18.381Z,18.93
2016-08-28T03:18:20.674Z,18.98
2016-08-28T03:21:20.311Z,19.07
2016-08-28T03:22:14.385Z,19.08
2016-08-28T03:23:12.854Z,19.07
2016-08-28T03:24:21.684Z,19.05
2016-08-28T03:25:27.659Z,19.08
2016-08-28T03:26:17.152Z,19.09
2016-08-28T03:27:14.030Z,19.11
2016-08-28T03:28:26.760Z,19.17
2016-08-28T03:29:23.051Z,19.16
2016-08-28T03:30:13.325Z,19.16
2016-08-28T03:31:15.404Z,19.19
2016-08-28T03:32:17.553Z,19.23
2016-08-28T03:33:12.425Z,19.21
2016-08-28T03:37:28.648Z,19.29
2016-08-28T03:38:13.895Z,19.26
2016-08-28T03:39:21.030Z,19.27
2016-08-28T03:41:21.861Z,19.26
2016-08-28T03:43:21.144Z,19.32
2016-08-28T03:44:32.356Z,19.33
2016-08-28T03:45:20.571Z,19.30
2016-08-28T03:46:18.824Z,19.27
2016-08-28T03:47:22.128Z,19.28
2016-08-28T03:48:17.670Z,19.24
2016-08-28T03:53:23.135Z,19.19
2016-08-28T03:54:29.500Z,19.18
2016-08-28T03:55:22.109Z,19.22
2016-08-28T03:58:21.691Z,19.14
2016-08-28T03:59:21.841Z,19.15
2016-08-28T04:01:20.028Z,19.19
2016-08-28T04:14:20.298Z,19.02
2016-08-28T04:27:22.248Z,19.07
2016-08-28T04:28:18.015Z,19.08
2016-08-28T04:29:39.115Z,19.13
2016-08-28T04:30:14.681Z,19.16
2016-08-28T04:34:20.260Z,19.15
2016-08-28T04:35:17.665Z,19.18
2016-08-28T04:37:16.796Z,19.20
2016-08-28T04:48:20.930Z,19.20
2016-08-28T05:01:12.645Z,19.36
2016-08-28T05:03:23.432Z,19.43
2016-08-28T05:08:19.456Z,19.65
2016-08-28T05:15:54.079Z,19.77
2016-08-28T05:16:18.894Z,19.77
2016-08-28T05:17:23.379Z,19.83
2016-08-28T05:20:21.252Z,19.88
2016-08-28T05:23:13.670Z,20.02
2016-08-28T05:24:12.327Z,20.06
2016-08-28T05:26:13.231Z,20.12
2016-08-28T05:27:17.900Z,20.16
2016-08-28T05:28:28.507Z,20.17
2016-08-28T05:29:14.372Z,20.20
2016-08-28T05:31:12.674Z,20.24
2016-08-28T05:32:28.606Z,20.26
2016-08-28T05:35:12.316Z,20.33
2016-08-28T05:41:17.721Z,20.58
2016-08-28T05:42:21.747Z,20.62
2016-08-28T05:43:12.512Z,20.64
2016-08-28T05:44:21.553Z,20.65
2016-08-28T05:46:20.757Z,20.70
2016-08-28T05:47:14.648Z,20.74
2016-08-28T05:48:18.877Z,20.77
2016-08-28T05:49:21.973Z,20.80
2016-08-28T05:50:22.642Z,20.82
2016-08-28T05:51:13.620Z,20.82
2016-08-28T05:55:37.840Z,20.95
2016-08-28T05:56:23.835Z,20.96
2016-08-28T05:57:13.080Z,20.95
2016-08-28T05:58:22.559Z,20.97
2016-08-28T05:59:12.386Z,20.98
2016-08-28T06:00:23.122Z,21.01
2016-08-28T06:01:13.160Z,21.05
2016-08-28T06:02:14.862Z,21.07
2016-08-28T06:03:19.397Z,21.06
2016-08-28T06:04:23.429Z,21.06
2016-08-28T06:05:22.721Z,21.07
2016-08-28T06:06:13.695Z,21.06
2016-08-28T06:07:12.854Z,21.09
2016-08-28T06:08:12.153Z,21.15
2016-08-28T06:09:19.875Z,21.10
2016-08-28T06:10:18.071Z,21.12
2016-08-28T06:12:22.945Z,21.14
2016-08-28T06:13:39.595Z,21.20
2016-08-28T06:14:19.954Z,21.22
2016-08-28T06:15:16.668Z,21.24
2016-08-28T06:16:13.419Z,21.25
2016-08-28T06:17:23.269Z,21.30
2016-08-28T06:18:16.004Z,21.31
2016-08-28T06:19:36.344Z,21.34
2016-08-28T06:20:18.406Z,21.36
2016-08-28T06:21:13.147Z,21.36
2016-08-28T06:22:22.808Z,21.41
2016-08-28T06:23:23.235Z,21.45
2016-08-28T06:24:13.350Z,21.46
2016-08-28T06:26:12.738Z,21.49
2016-08-28T06:27:10.446Z,21.52
2016-08-28T06:28:22.257Z,21.53
2016-08-28T06:29:17.197Z,21.56
2016-08-28T06:31:20.906Z,21.62
2016-08-28T06:32:15.737Z,21.64
2016-08-28T06:33:18.500Z,21.71
2016-08-28T06:34:22.049Z,21.75
2016-08-28T06:35:12.693Z,21.79
2016-08-28T06:42:13.102Z,21.96
2016-08-28T06:47:33.069Z,22.14
2016-08-28T06:48:18.773Z,22.18
2016-08-28T06:50:22.005Z,22.28
2016-08-28T06:51:12.179Z,22.30
2016-08-28T06:52:22.705Z,22.32
2016-08-28T06:53:13.467Z,22.38
2016-08-28T06:54:18.640Z,22.38
2016-08-28T06:55:19.690Z,22.41
2016-08-28T07:01:14.419Z,22.53
2016-08-28T07:02:19.606Z,22.65
2016-08-28T07:03:20.271Z,22.72
2016-08-28T07:04:22.082Z,22.80
2016-08-28T07:05:22.401Z,22.89
2016-08-28T07:06:12.959Z,22.86
2016-08-28T07:07:26.198Z,22.93
2016-08-28T07:08:12.455Z,23.01
2016-08-28T07:09:17.690Z,22.99
2016-08-28T07:10:13.112Z,23.03
2016-08-28T07:11:15.489Z,23.12
2016-08-28T07:12:21.882Z,23.16
2016-08-28T07:13:12.634Z,23.20
2016-08-28T07:14:19.300Z,23.21
2016-08-28T07:15:11.966Z,23.24
2016-08-28T07:16:12.725Z,23.30
2016-08-28T07:17:11.821Z,23.46
2016-08-28T07:18:12.844Z,23.42
2016-08-28T07:19:19.591Z,23.40
2016-08-28T07:20:20.674Z,23.40
2016-08-28T07:21:21.166Z,23.58
2016-08-28T07:22:20.177Z,23.56
2016-08-28T07:23:13.494Z,23.54
2016-08-28T07:24:19.605Z,23.53
2016-08-28T07:25:18.670Z,23.48
2016-08-28T07:26:29.163Z,23.45
2016-08-28T07:27:17.390Z,23.41
2016-08-28T07:28:15.457Z,23.38
2016-08-28T07:29:23.508Z,23.37
2016-08-28T07:30:20.715Z,23.32
2016-08-28T07:32:18.188Z,23.37
2016-08-28T07:33:23.813Z,23.40
2016-08-28T07:34:21.953Z,23.36
2016-08-28T07:40:24.765Z,23.48
2016-08-28T07:41:41.190Z,23.55
2016-08-28T07:42:22.682Z,23.61
2016-08-28T07:45:14.067Z,23.88
2016-08-28T07:46:19.788Z,23.87
2016-08-28T07:48:14.313Z,23.85
2016-08-28T07:50:17.921Z,24.45
2016-08-28T07:51:22.582Z,24.44
2016-08-28T07:53:36.721Z,24.38
2016-08-28T07:54:20.102Z,24.44
2016-08-28T07:57:28.042Z,24.41
2016-08-28T07:58:14.202Z,24.46
2016-08-28T08:00:12.946Z,24.57
2016-08-28T08:01:15.741Z,24.66
2016-08-28T08:05:15.884Z,24.70
2016-08-28T08:07:13.244Z,24.54
2016-08-28T08:11:21.068Z,24.65
2016-08-28T08:16:16.886Z,24.83
2016-08-28T08:20:31.632Z,24.92
2016-08-28T08:21:17.456Z,25.02
2016-08-28T08:22:19.309Z,25.09
2016-08-28T08:27:13.914Z,25.17
2016-08-28T08:28:13.981Z,25.33
2016-08-28T08:29:12.553Z,25.33
2016-08-28T08:35:19.587Z,24.99
2016-08-28T08:36:43.166Z,24.98
2016-08-28T08:42:08.138Z,25.47
2016-08-28T08:42:12.508Z,25.53
2016-08-28T08:43:24.331Z,25.51
2016-08-28T08:44:15.793Z,25.39
2016-08-28T08:47:24.888Z,25.51
2016-08-28T08:48:21.584Z,25.56
2016-08-28T08:49:28.007Z,25.63
2016-08-28T08:55:13.417Z,25.49
2016-08-28T08:56:42.708Z,25.40
2016-08-28T08:57:21.592Z,25.35
2016-08-28T08:58:22.151Z,25.38
2016-08-28T08:59:12.181Z,25.49
2016-08-28T09:00:28.529Z,25.57
2016-08-28T09:01:14.175Z,25.64
2016-08-28T09:02:16.023Z,25.74
2016-08-28T09:03:19.880Z,25.74
2016-08-28T09:05:12.190Z,25.63
2016-08-28T09:08:15.292Z,25.60
2016-08-28T09:09:13.900Z,25.58
2016-08-28T09:10:13.771Z,25.53
2016-08-28T09:11:16.664Z,25.74
2016-08-28T09:12:13.405Z,25.93
2016-08-28T09:14:16.432Z,25.74
2016-08-28T09:15:20.435Z,25.89
2016-08-28T09:16:20.465Z,26.01
2016-08-28T09:17:34.837Z,25.94
2016-08-28T09:18:23.263Z,25.86
2016-08-28T09:20:33.501Z,25.91
2016-08-28T09:22:14.570Z,26.05
2016-08-28T09:23:17.627Z,26.10
2016-08-28T09:24:25.996Z,26.21
2016-08-28T09:26:20.975Z,26.19
2016-08-28T09:26:24.313Z,26.17
2016-08-28T09:27:14.280Z,26.12
2016-08-28T09:29:12.266Z,26.19
2016-08-28T09:30:12.522Z,26.22
2016-08-28T09:31:18.513Z,26.24
2016-08-28T09:32:33.677Z,26.25
2016-08-28T09:33:18.618Z,26.26
2016-08-28T09:35:13.862Z,26.28
2016-08-28T09:36:31.161Z,26.38
2016-08-28T09:37:12.134Z,26.72
2016-08-28T09:38:14.577Z,26.82
2016-08-28T09:39:20.127Z,26.66
2016-08-28T09:40:16.960Z,26.43
2016-08-28T09:41:13.809Z,26.40
2016-08-28T09:42:21.369Z,26.41
2016-08-28T09:46:11.474Z,26.46
2016-08-28T09:47:20.331Z,26.45
2016-08-28T09:48:12.704Z,26.50
2016-08-28T09:49:16.402Z,26.54
2016-08-28T09:50:25.629Z,26.47
2016-08-28T09:51:12.984Z,26.51
2016-08-28T09:52:13.501Z,26.50
2016-08-28T09:53:22.296Z,26.69
2016-08-28T09:54:20.016Z,26.77
2016-08-28T09:55:20.676Z,26.77
2016-08-28T09:56:11.239Z,26.81
2016-08-28T09:57:31.255Z,26.90
2016-08-28T09:59:16.773Z,26.97
2016-08-28T10:01:41.087Z,26.93
2016-08-28T10:02:16.459Z,26.88
2016-08-28T10:03:13.705Z,26.87
2016-08-28T10:04:12.427Z,27.02
2016-08-28T10:05:13.137Z,27.04
2016-08-28T10:07:16.875Z,27.06
2016-08-28T10:08:12.599Z,27.16
2016-08-28T10:09:13.980Z,27.10
2016-08-28T10:10:36.734Z,27.15
2016-08-28T10:11:19.347Z,27.16
2016-08-28T10:13:12.242Z,27.27
2016-08-28T10:14:13.150Z,27.15
2016-08-28T10:15:16.609Z,27.10
2016-08-28T10:16:19.351Z,26.98
2016-08-28T10:17:17.060Z,26.93
2016-08-28T10:18:20.377Z,26.93
2016-08-28T10:22:12.612Z,26.91
2016-08-28T10:23:27.717Z,26.86
2016-08-28T10:24:17.292Z,26.88
2016-08-28T10:25:20.509Z,26.91
2016-08-28T10:26:15.975Z,26.72
2016-08-28T10:27:20.483Z,26.73
2016-08-28T10:29:14.443Z,26.82
2016-08-28T10:32:17.417Z,26.59
2016-08-28T10:33:20.142Z,26.60
2016-08-28T10:34:29.954Z,26.61
2016-08-28T10:35:38.109Z,26.57
2016-08-28T10:36:13.398Z,26.49
2016-08-28T10:37:12.349Z,26.40
2016-08-28T10:38:19.963Z,26.41
2016-08-28T10:39:18.625Z,26.42
2016-08-28T10:40:29.641Z,26.39
2016-08-28T10:41:21.139Z,26.38
2016-08-28T10:42:15.546Z,26.31
2016-08-28T10:44:18.087Z,26.34
2016-08-28T10:45:30.306Z,26.32
2016-08-28T10:46:22.734Z,26.30
2016-08-28T10:47:50.361Z,26.32
2016-08-28T10:49:12.841Z,26.28
2016-08-28T10:50:21.947Z,26.14
2016-08-28T10:52:12.652Z,26.17
2016-08-28T10:53:14.513Z,26.14
2016-08-28T10:54:20.440Z,26.12
2016-08-28T10:55:20.056Z,26.09
2016-08-28T10:56:18.113Z,26.04
2016-08-28T10:57:15.455Z,25.96
2016-08-28T10:58:13.121Z,25.95
2016-08-28T10:59:15.310Z,25.90
2016-08-28T11:00:21.416Z,25.88
2016-08-28T11:01:21.400Z,25.81
2016-08-28T11:04:48.127Z,25.85
2016-08-28T11:05:15.930Z,25.80
2016-08-28T11:06:16.974Z,25.77
2016-08-28T11:07:23.747Z,25.68
2016-08-28T11:08:24.449Z,25.64
2016-08-28T11:10:15.726Z,25.54
2016-08-28T11:11:14.251Z,25.51
2016-08-28T11:12:14.236Z,25.48
2016-08-28T11:13:15.105Z,25.38
2016-08-28T11:14:13.022Z,25.35
2016-08-28T11:15:19.759Z,25.34
2016-08-28T11:16:12.918Z,25.36
2016-08-28T11:17:18.488Z,25.34
2016-08-28T11:19:23.396Z,25.27
2016-08-28T11:20:12.690Z,25.25
2016-08-28T11:21:12.066Z,25.29
2016-08-28T11:22:18.640Z,25.28
2016-08-28T11:23:17.423Z,25.28
2016-08-28T11:24:12.107Z,25.30
2016-08-28T11:25:12.447Z,25.35
2016-08-28T11:27:12.406Z,25.47
2016-08-28T11:27:44.054Z,25.39
2016-08-28T11:28:36.196Z,25.66
2016-08-28T11:29:12.847Z,25.82
2016-08-28T11:30:33.562Z,25.96
2016-08-28T11:31:13.343Z,26.02
2016-08-28T11:32:17.687Z,25.98
2016-08-28T11:33:13.657Z,25.98
2016-08-28T11:34:17.252Z,25.97
2016-08-28T11:35:12.831Z,26.00
2016-08-28T11:36:13.759Z,26.05
2016-08-28T11:37:13.043Z,26.09
2016-08-28T11:39:15.292Z,26.13
2016-08-28T11:40:14.761Z,26.16
2016-08-28T11:43:30.826Z,26.35
2016-08-28T11:44:32.674Z,26.39
2016-08-28T11:47:16.082Z,26.49
2016-08-28T11:48:39.357Z,26.51
2016-08-28T11:51:21.097Z,26.60
2016-08-28T11:53:14.908Z,26.57
2016-08-28T11:55:13.810Z,26.70
2016-08-28T11:56:13.839Z,26.70
2016-08-28T11:57:47.948Z,26.67
2016-08-28T11:58:20.900Z,26.66
2016-08-28T12:00:14.569Z,26.70
2016-08-28T12:01:22.240Z,26.73
2016-08-28T12:06:53.352Z,26.82
2016-08-28T12:07:12.770Z,26.83
2016-08-28T12:09:25.999Z,27.04
2016-08-28T12:10:29.539Z,27.10
2016-08-28T12:11:15.951Z,27.12
2016-08-28T12:13:28.611Z,27.24
2016-08-28T12:14:29.722Z,27.28
2016-08-28T12:15:15.382Z,27.31
2016-08-28T12:16:13.676Z,27.34
2016-08-28T12:17:14.231Z,27.36
2016-08-28T12:18:12.311Z,27.38
2016-08-28T12:19:12.421Z,27.40
2016-08-28T12:20:13.647Z,27.38
2016-08-28T12:21:13.011Z,27.34
2016-08-28T12:22:16.696Z,27.31
2016-08-28T12:23:12.747Z,27.40
2016-08-28T12:24:11.959Z,27.43
2016-08-28T12:26:11.928Z,27.28
2016-08-28T12:27:13.627Z,27.27
2016-08-28T12:28:12.999Z,27.33
2016-08-28T12:29:12.205Z,27.38
2016-08-28T12:30:32.123Z,27.48
2016-08-28T12:31:15.137Z,27.65
2016-08-28T12:32:19.087Z,27.77
2016-08-28T12:33:13.399Z,27.76
2016-08-28T12:34:13.599Z,27.76
2016-08-28T12:35:19.247Z,27.69
2016-08-28T12:37:17.299Z,27.62
2016-08-28T12:38:13.132Z,27.67
2016-08-28T12:40:11.836Z,27.70
2016-08-28T12:41:15.038Z,27.70
2016-08-28T12:42:32.088Z,27.71
2016-08-28T12:44:22.931Z,27.81
2016-08-28T12:45:17.141Z,27.90
2016-08-28T12:46:19.444Z,27.98
2016-08-28T12:47:18.492Z,28.09
2016-08-28T12:48:13.445Z,28.10
2016-08-28T12:50:15.114Z,28.26
2016-08-28T12:51:13.076Z,28.34
2016-08-28T12:53:19.677Z,28.39
2016-08-28T12:55:13.730Z,28.55
2016-08-28T12:56:24.334Z,28.61
2016-08-28T12:57:13.325Z,28.57
2016-08-28T12:58:14.167Z,28.56
2016-08-28T12:59:16.132Z,28.61
2016-08-28T13:14:22.678Z,29.53
2016-08-28T13:34:17.978Z,29.37
2016-08-28T13:35:17.772Z,29.39
2016-08-28T13:36:15.546Z,29.39
2016-08-28T13:37:35.845Z,29.39
2016-08-28T13:38:17.154Z,29.28
2016-08-28T13:40:42.434Z,29.21
2016-08-28T13:41:12.012Z,29.19
2016-08-28T13:42:33.223Z,29.04
2016-08-28T13:43:28.175Z,29.01
2016-08-28T13:45:19.959Z,28.94
2016-08-28T13:46:21.695Z,28.91
2016-08-28T13:47:20.247Z,28.92
2016-08-28T13:48:24.789Z,28.90
2016-08-28T13:49:19.553Z,28.84
2016-08-28T13:53:20.767Z,29.05
2016-08-28T13:54:28.372Z,29.01
2016-08-28T14:04:11.845Z,28.93
2016-08-28T14:08:52.251Z,28.84
2016-08-28T14:09:24.646Z,28.79
2016-08-28T14:19:19.198Z,28.68
2016-08-28T14:20:24.446Z,28.69
2016-08-28T14:21:20.108Z,28.67
2016-08-28T14:22:12.487Z,28.80
2016-08-28T14:24:14.133Z,28.87
2016-08-28T14:25:26.330Z,28.82
2016-08-28T14:26:17.386Z,28.78
2016-08-28T14:27:30.840Z,28.78
2016-08-28T14:28:13.022Z,28.79
2016-08-28T14:29:13.162Z,28.72
2016-08-28T14:30:12.478Z,28.75
2016-08-28T14:31:12.665Z,28.81
2016-08-28T14:32:15.005Z,28.77
2016-08-28T14:33:11.821Z,28.72
2016-08-28T14:35:15.199Z,28.71
2016-08-28T14:36:11.879Z,28.76
2016-08-28T14:37:11.472Z,28.71
2016-08-28T14:38:12.669Z,28.64
2016-08-28T14:39:11.341Z,28.59
2016-08-28T14:40:11.549Z,28.59
2016-08-28T14:41:11.543Z,28.62
2016-08-28T14:42:13.609Z,28.62
2016-08-28T14:43:12.307Z,28.63
2016-08-28T14:44:12.194Z,28.79
2016-08-28T14:46:16.426Z,28.74
2016-08-28T14:47:12.662Z,28.73
2016-08-28T14:48:12.851Z,28.74
2016-08-28T14:49:11.826Z,28.70
2016-08-28T14:50:21.661Z,28.62
2016-08-28T14:51:11.619Z,28.60
2016-08-28T14:52:12.117Z,28.65
2016-08-28T14:53:11.787Z,28.69
2016-08-28T14:54:12.394Z,28.67
2016-08-28T14:55:12.245Z,28.68
2016-08-28T14:56:18.273Z,28.66
2016-08-28T14:57:12.226Z,28.74
2016-08-28T14:58:18.261Z,28.83
2016-08-28T14:59:13.143Z,28.83
2016-08-28T15:00:12.006Z,28.84
2016-08-28T15:01:12.692Z,28.87
2016-08-28T15:02:12.763Z,28.96
2016-08-28T15:03:13.574Z,28.95
2016-08-28T15:04:12.263Z,29.02
2016-08-28T15:05:12.670Z,29.07
2016-08-28T15:06:12.209Z,29.04
2016-08-28T15:07:11.816Z,29.06
2016-08-28T15:08:12.365Z,29.10
2016-08-28T15:09:11.849Z,29.11
2016-08-28T15:10:13.147Z,29.10
2016-08-28T15:11:11.951Z,29.18
2016-08-28T15:12:14.298Z,29.19
2016-08-28T15:13:12.528Z,29.25
2016-08-28T15:14:12.186Z,29.18
2016-08-28T15:15:14.190Z,29.13
2016-08-28T15:16:14.262Z,29.06
2016-08-28T15:17:08.433Z,29.10
2016-08-28T15:18:07.825Z,28.95
2016-08-28T15:19:08.141Z,28.79
2016-08-28T15:20:08.352Z,28.72
2016-08-28T15:21:08.052Z,28.73
2016-08-28T15:22:08.572Z,28.77
2016-08-28T15:23:07.964Z,28.79
2016-08-28T15:24:08.482Z,28.65
2016-08-28T15:25:07.672Z,28.50
2016-08-28T15:26:08.161Z,28.46
2016-08-28T15:27:08.257Z,28.47
2016-08-28T15:28:07.580Z,28.34
2016-08-28T15:29:08.825Z,28.19
2016-08-28T15:30:08.218Z,28.19
2016-08-28T15:31:09.249Z,28.09
2016-08-28T15:32:08.233Z,28.10
2016-08-28T15:33:08.519Z,28.04
2016-08-28T15:34:07.941Z,28.07
2016-08-28T15:35:08.050Z,28.11
2016-08-28T15:36:11.802Z,28.22
2016-08-28T15:37:07.347Z,28.20
2016-08-28T15:38:08.072Z,28.23
2016-08-28T15:39:08.387Z,28.34
2016-08-28T15:40:07.882Z,28.64
2016-08-28T15:41:08.400Z,28.87
2016-08-28T15:42:08.305Z,28.99
2016-08-28T15:43:08.107Z,29.23
2016-08-28T15:44:07.295Z,29.69
2016-08-28T15:45:08.428Z,29.94
2016-08-28T15:46:07.821Z,30.30
2016-08-28T15:47:08.647Z,30.56
2016-08-28T15:48:08.143Z,30.86
2016-08-28T15:49:08.457Z,31.36
2016-08-28T15:50:07.747Z,31.50
2016-08-28T15:51:09.599Z,31.84
2016-08-28T15:52:08.125Z,31.33
2016-08-28T15:53:08.895Z,31.31
2016-08-28T15:54:08.186Z,31.67
2016-08-28T15:55:08.091Z,31.98
2016-08-28T15:56:07.790Z,32.38
2016-08-28T15:57:08.616Z,32.54
2016-08-28T15:58:07.503Z,32.88
2016-08-28T15:59:08.222Z,32.81
2016-08-28T16:00:08.354Z,32.91
2016-08-28T16:01:12.034Z,33.11
2016-08-28T16:02:12.526Z,33.12
2016-08-28T16:03:20.691Z,33.02
2016-08-28T16:04:12.448Z,33.00
2016-08-28T16:05:14.837Z,32.65
2016-08-28T16:06:16.372Z,32.54
2016-08-28T16:07:12.513Z,32.59
2016-08-28T16:08:12.068Z,32.80
2016-08-28T16:09:12.174Z,32.65
2016-08-28T16:10:09.218Z,32.67
2016-08-28T16:11:07.585Z,32.58
2016-08-28T16:12:08.206Z,32.35
2016-08-28T16:13:07.805Z,32.57
2016-08-28T16:14:07.913Z,32.53
2016-08-28T16:15:11.393Z,32.54
2016-08-28T16:16:12.453Z,32.61
2016-08-28T16:17:10.496Z,32.52
2016-08-28T16:18:11.131Z,32.57
2016-08-28T16:19:13.243Z,32.56
2016-08-28T16:20:10.326Z,32.52
2016-08-28T16:21:11.815Z,32.48
2016-08-28T16:22:13.809Z,32.23
2016-08-28T16:23:09.121Z,31.62
2016-08-28T16:24:12.010Z,31.20
2016-08-28T16:25:08.724Z,31.19
2016-08-28T16:26:10.576Z,30.88
2016-08-28T16:27:09.955Z,30.73
2016-08-28T16:28:10.795Z,30.47
2016-08-28T16:29:12.032Z,30.27
2016-08-28T16:30:12.672Z,30.17
2016-08-28T16:31:08.560Z,29.93
2016-08-28T16:32:11.323Z,29.72
2016-08-28T16:33:11.548Z,29.64
2016-08-28T16:34:09.785Z,29.62
2016-08-28T16:35:09.410Z,29.50
2016-08-28T16:36:12.150Z,29.52
2016-08-28T16:37:12.325Z,29.33
2016-08-28T16:38:12.401Z,29.23
2016-08-28T16:39:21.494Z,29.12
2016-08-28T16:40:14.600Z,29.16
2016-08-28T16:41:15.896Z,29.11
2016-08-28T16:42:22.212Z,28.98
2016-08-28T16:46:58.600Z,28.83
2016-08-28T16:47:16.519Z,28.85
2016-08-28T16:48:31.214Z,28.75
2016-08-28T16:49:11.446Z,28.67
2016-08-28T16:53:18.362Z,28.45
2016-08-28T16:54:14.864Z,28.47
2016-08-28T16:55:22.407Z,28.45
2016-08-28T16:58:24.554Z,28.28
2016-08-28T17:01:19.427Z,28.06
2016-08-28T17:02:12.389Z,28.00
2016-08-28T17:04:21.395Z,27.88
2016-08-28T17:05:15.777Z,27.84
2016-08-28T17:06:14.957Z,27.75
2016-08-28T17:08:14.878Z,27.65
2016-08-28T17:09:16.358Z,27.62
2016-08-28T17:11:13.040Z,27.57
2016-08-28T17:12:23.242Z,27.52
2016-08-28T17:13:19.860Z,27.46
2016-08-28T17:14:14.270Z,27.40
2016-08-28T17:16:15.331Z,27.36
2016-08-28T17:17:17.533Z,27.32
2016-08-28T17:18:14.888Z,27.34
2016-08-28T17:24:29.756Z,27.14
2016-08-28T17:25:19.561Z,27.06
2016-08-28T17:26:27.904Z,27.00
2016-08-28T17:27:19.921Z,26.96
2016-08-28T17:28:36.044Z,26.94
2016-08-28T17:29:12.584Z,26.92
2016-08-28T17:30:11.045Z,26.83
2016-08-28T17:34:14.656Z,26.74
2016-08-28T17:36:31.954Z,26.72
2016-08-28T17:37:14.024Z,26.68
2016-08-28T17:38:24.399Z,26.64
2016-08-28T17:43:14.469Z,26.45
2016-08-28T17:47:14.081Z,26.28
2016-08-28T17:48:12.567Z,26.23
2016-08-28T17:49:18.971Z,26.18
2016-08-28T17:50:13.569Z,26.16
2016-08-28T17:51:19.683Z,26.09
2016-08-28T17:52:13.105Z,26.03
2016-08-28T17:53:18.500Z,26.01
2016-08-28T17:54:14.595Z,26.03
2016-08-28T17:55:40.313Z,25.99
2016-08-28T17:56:22.111Z,25.95
2016-08-28T17:57:12.691Z,25.89
2016-08-28T17:58:22.570Z,25.87
2016-08-28T17:59:13.934Z,25.84
2016-08-28T18:00:20.351Z,25.78
2016-08-28T18:03:32.569Z,25.68
2016-08-28T18:04:28.581Z,25.62
2016-08-28T18:06:41.867Z,25.53
2016-08-28T18:07:13.521Z,25.47
2016-08-28T18:08:15.173Z,25.39
2016-08-28T18:09:20.702Z,25.38
2016-08-28T18:10:14.531Z,25.34
2016-08-28T18:11:16.266Z,25.32
2016-08-28T18:12:17.432Z,25.27
2016-08-28T18:13:21.484Z,25.20
2016-08-28T18:14:48.027Z,25.14
2016-08-28T18:15:15.837Z,25.10
2016-08-28T18:18:17.739Z,24.97
2016-08-28T18:19:22.056Z,24.91
2016-08-28T18:21:20.193Z,24.89
2016-08-28T18:23:44.988Z,24.80
2016-08-28T18:24:14.038Z,24.77
2016-08-28T18:25:11.811Z,24.74
2016-08-28T18:26:13.830Z,24.72
2016-08-28T18:27:14.511Z,24.67
2016-08-28T18:28:11.829Z,24.62
2016-08-28T18:29:11.923Z,24.63
2016-08-28T18:31:14.340Z,24.56
2016-08-28T18:32:33.319Z,24.56
2016-08-28T18:33:50.625Z,24.52
2016-08-28T18:34:13.847Z,24.50
2016-08-28T18:35:16.789Z,24.43
2016-08-28T18:40:28.256Z,24.35
2016-08-28T18:41:12.747Z,24.32
2016-08-28T18:42:20.356Z,24.25
2016-08-28T18:43:17.226Z,24.18
2016-08-28T18:44:17.932Z,24.16
2016-08-28T18:51:18.576Z,23.97
2016-08-28T18:52:21.853Z,23.98
2016-08-28T18:53:22.996Z,23.96
2016-08-28T18:54:18.434Z,23.89
2016-08-28T18:55:31.091Z,23.87
2016-08-28T18:56:14.251Z,23.85
2016-08-28T18:57:16.807Z,23.82
2016-08-28T19:01:14.939Z,23.73
2016-08-28T19:09:10.276Z,23.58
2016-08-28T19:10:23.763Z,23.59
2016-08-28T19:11:39.066Z,23.56
2016-08-28T19:12:48.923Z,23.54
2016-08-28T19:13:26.325Z,23.52
2016-08-28T19:14:26.024Z,23.50
2016-08-28T19:16:13.085Z,23.51
2016-08-28T19:17:23.558Z,23.52
2016-08-28T19:18:31.439Z,23.47
2016-08-28T19:19:17.622Z,23.46
2016-08-28T19:20:27.986Z,23.46
2016-08-28T19:22:21.110Z,23.43
2016-08-28T19:23:12.839Z,23.48
2016-08-28T19:24:20.837Z,23.53
2016-08-28T19:25:12.959Z,23.47
2016-08-28T19:26:21.702Z,23.57
2016-08-28T19:28:12.586Z,23.58
2016-08-28T19:29:12.261Z,23.54
2016-08-28T19:30:29.519Z,23.47
2016-08-28T19:31:22.242Z,23.53
2016-08-28T19:32:27.882Z,23.41
2016-08-28T19:33:14.446Z,23.46
2016-08-28T19:34:13.044Z,23.46
2016-08-28T19:35:17.310Z,23.44
2016-08-28T19:36:22.914Z,23.41
2016-08-28T19:37:11.708Z,23.40
2016-08-28T19:39:12.933Z,23.32
2016-08-28T19:41:18.718Z,23.32
2016-08-28T19:42:09.923Z,23.32
2016-08-28T19:43:12.963Z,23.28
2016-08-28T19:44:12.853Z,23.36
2016-08-28T19:46:20.695Z,23.46
2016-08-28T19:47:13.046Z,23.46
2016-08-28T19:48:20.627Z,23.44
2016-08-28T19:49:23.694Z,23.38
2016-08-28T19:50:12.683Z,23.42
2016-08-28T19:51:19.838Z,23.41
2016-08-28T19:52:14.474Z,23.41
2016-08-28T19:53:33.679Z,23.38
2016-08-28T19:54:35.499Z,23.43
2016-08-28T19:56:23.549Z,23.38
2016-08-28T19:58:17.985Z,23.22
2016-08-28T19:59:15.434Z,23.17
2016-08-28T20:01:12.746Z,23.19
2016-08-28T20:02:12.493Z,23.18
2016-08-28T20:03:16.799Z,23.15
2016-08-28T20:04:20.562Z,23.12
2016-08-28T20:05:12.220Z,23.13
2016-08-28T20:06:14.399Z,23.13
2016-08-28T20:07:17.612Z,23.06
2016-08-28T20:08:33.371Z,23.06
2016-08-28T20:09:46.445Z,23.05
2016-08-28T20:10:11.989Z,23.02
2016-08-28T20:11:32.900Z,23.02
2016-08-28T20:12:29.430Z,23.07
2016-08-28T20:13:12.133Z,23.03
2016-08-28T20:14:14.237Z,23.07
2016-08-28T20:15:15.072Z,23.02
2016-08-28T20:16:34.520Z,23.09
2016-08-28T20:17:20.588Z,23.05
2016-08-28T20:18:11.879Z,23.03
2016-08-28T20:19:12.329Z,23.06
2016-08-28T20:20:18.001Z,23.03
2016-08-28T20:21:14.035Z,23.02
2016-08-28T20:22:18.320Z,23.04
2016-08-28T20:23:12.235Z,22.95
2016-08-28T20:24:11.892Z,22.98
2016-08-28T20:25:13.407Z,22.99
2016-08-28T20:26:24.469Z,22.91
2016-08-28T20:27:24.581Z,22.93
2016-08-28T20:28:13.484Z,23.00
2016-08-28T20:29:14.118Z,22.96
2016-08-28T20:30:13.925Z,22.89
2016-08-28T20:31:30.674Z,22.87
2016-08-28T20:32:21.693Z,22.88